createdAt,value
2022-08-09T00:00:11.429Z,17.30
2022-08-09T00:02:49.654Z,17.30
2022-08-09T00:06:17.655Z,17.20
2022-08-09T00:08:12.952Z,17.20
2022-08-09T00:10:59.234Z,17.20
2022-08-09T00:13:27.618Z,17.10
2022-08-09T00:15:57.912Z,17.10
2022-08-09T00:18:27.897Z,17.10
2022-08-09T00:20:58.635Z,17.10
2022-08-09T00:23:54.962Z,17.00
2022-08-09T00:26:15.339Z,17.00
2022-08-09T00:28:52.708Z,17.00
2022-08-09T00:31:56.995Z,17.00
2022-08-09T00:34:11.219Z,16.90
2022-08-09T00:36:42.048Z,16.90
2022-08-09T00:39:16.740Z,16.90
2022-08-09T00:44:15.996Z,16.90
2022-08-09T00:44:47.236Z,16.80
2022-08-09T00:47:15.955Z,16.80
2022-08-09T00:49:55.051Z,16.70
2022-08-09T00:52:30.323Z,16.70
2022-08-09T00:55:01.194Z,16.60
2022-08-09T00:57:34.787Z,16.50
2022-08-09T01:00:21.540Z,16.50
2022-08-09T01:02:53.624Z,16.50
2022-08-09T01:05:53.324Z,16.50
2022-08-09T01:08:26.977Z,16.40
2022-08-09T01:11:08.800Z,16.40
2022-08-09T01:13:58.517Z,16.30
2022-08-09T01:16:32.964Z,16.30
2022-08-09T01:19:08.178Z,16.30
2022-08-09T01:21:53.883Z,16.20
2022-08-09T01:24:36.240Z,16.20
2022-08-09T01:27:10.228Z,16.10
2022-08-09T01:29:55.952Z,16.10
2022-08-09T01:32:34.606Z,16.00
2022-08-09T01:35:28.943Z,16.00
2022-08-09T01:38:08.365Z,15.90
2022-08-09T01:40:43.183Z,15.90
2022-08-09T01:43:14.559Z,15.90
2022-08-09T01:45:46.226Z,15.80
2022-08-09T01:48:18.339Z,15.80
2022-08-09T01:50:54.912Z,15.80
2022-08-09T01:53:29.205Z,15.70
2022-08-09T01:56:11.835Z,15.70
2022-08-09T01:58:49.095Z,15.70
2022-08-09T02:01:19.973Z,15.70
2022-08-09T02:04:00.875Z,15.60
2022-08-09T02:06:45.486Z,15.40
2022-08-09T02:09:41.917Z,15.60
2022-08-09T02:12:21.203Z,15.60
2022-08-09T02:14:53.995Z,15.50
2022-08-09T02:17:59.407Z,15.50
2022-08-09T02:20:25.243Z,15.50
2022-08-09T02:23:09.143Z,15.50
2022-08-09T02:25:42.005Z,15.40
2022-08-09T02:28:18.064Z,15.40
2022-08-09T02:30:52.476Z,15.40
2022-08-09T02:33:58.217Z,15.30
2022-08-09T02:36:17.692Z,15.30
2022-08-09T02:38:50.867Z,15.20
2022-08-09T02:41:24.168Z,15.20
2022-08-09T02:43:55.565Z,15.20
2022-08-09T02:46:28.776Z,15.10
2022-08-09T02:49:02.766Z,15.10
2022-08-09T02:51:37.094Z,15.10
2022-08-09T02:54:14.002Z,15.10
2022-08-09T02:56:50.995Z,15.10
2022-08-09T02:59:26.634Z,15.10
2022-08-09T03:02:11.997Z,15.10
2022-08-09T03:04:46.019Z,15.00
2022-08-09T03:07:20.164Z,15.00
2022-08-09T03:09:54.390Z,14.90
2022-08-09T03:12:25.699Z,14.90
2022-08-09T03:14:54.808Z,14.90
2022-08-09T03:17:27.012Z,14.90
2022-08-09T03:20:05.041Z,14.80
2022-08-09T03:22:42.252Z,14.80
2022-08-09T03:25:26.106Z,14.80
2022-08-09T03:28:05.413Z,14.70
2022-08-09T03:30:39.924Z,14.70
2022-08-09T03:33:17.646Z,14.70
2022-08-09T03:36:12.342Z,14.70
2022-08-09T03:38:37.304Z,14.60
2022-08-09T03:41:10.421Z,14.60
2022-08-09T03:44:03.513Z,14.60
2022-08-09T03:46:32.781Z,14.60
2022-08-09T03:49:08.051Z,14.50
2022-08-09T03:51:56.869Z,14.50
2022-08-09T03:54:31.766Z,14.50
2022-08-09T03:57:04.299Z,14.40
2022-08-09T03:59:52.866Z,14.50
2022-08-09T04:02:26.523Z,14.40
2022-08-09T04:04:58.512Z,14.40
2022-08-09T04:07:47.836Z,14.40
2022-08-09T04:10:20.307Z,14.40
2022-08-09T04:12:51.044Z,14.40
2022-08-09T04:15:42.698Z,14.30
2022-08-09T04:18:16.491Z,14.30
2022-08-09T04:20:48.077Z,14.30
2022-08-09T04:23:17.745Z,14.30
2022-08-09T04:25:51.962Z,14.20
2022-08-09T04:28:33.647Z,14.20
2022-08-09T04:31:08.606Z,14.30
2022-08-09T04:33:51.953Z,14.20
2022-08-09T04:36:24.042Z,14.20
2022-08-09T04:38:52.595Z,14.20
2022-08-09T04:41:23.810Z,14.20
2022-08-09T04:44:06.733Z,14.30
2022-08-09T04:46:59.228Z,14.30
2022-08-09T04:49:40.875Z,14.30
2022-08-09T04:52:18.315Z,14.30
2022-08-09T04:54:51.653Z,14.40
2022-08-09T04:57:24.232Z,14.40
2022-08-09T04:59:54.399Z,14.40
2022-08-09T05:02:22.856Z,14.40
2022-08-09T05:04:55.355Z,14.50
2022-08-09T05:07:29.162Z,14.50
2022-08-09T05:10:01.829Z,14.50
2022-08-09T05:12:31.174Z,14.60
2022-08-09T05:15:03.431Z,14.60
2022-08-09T05:18:38.047Z,14.70
2022-08-09T05:20:21.208Z,14.80
2022-08-09T05:23:55.414Z,14.80
2022-08-09T05:25:50.704Z,14.90
2022-08-09T05:28:20.265Z,15.00
2022-08-09T05:30:49.131Z,15.10
2022-08-09T05:33:19.955Z,15.10
2022-08-09T05:35:54.890Z,15.20
2022-08-09T05:38:27.919Z,15.20
2022-08-09T05:40:56.260Z,15.30
2022-08-09T05:43:24.670Z,15.40
2022-08-09T05:46:00.076Z,15.40
2022-08-09T05:48:33.232Z,15.50
2022-08-09T05:51:41.536Z,15.60
2022-08-09T05:53:57.733Z,15.60
2022-08-09T05:56:28.269Z,15.70
2022-08-09T05:58:59.061Z,15.80
2022-08-09T06:01:33.536Z,15.90
2022-08-09T06:04:05.894Z,16.00
2022-08-09T06:06:35.256Z,16.10
2022-08-09T06:09:22.972Z,16.10
2022-08-09T06:11:57.805Z,16.20
2022-08-09T06:14:26.519Z,16.30
2022-08-09T06:16:57.274Z,16.30
2022-08-09T06:19:27.457Z,16.40
2022-08-09T06:21:58.330Z,16.40
2022-08-09T06:24:29.111Z,16.50
2022-08-09T06:26:57.908Z,16.60
2022-08-09T06:29:26.897Z,16.60
2022-08-09T06:32:36.250Z,16.70
2022-08-09T06:34:44.148Z,16.70
2022-08-09T06:37:14.834Z,16.80
2022-08-09T06:39:58.358Z,16.90
2022-08-09T06:42:30.885Z,16.90
2022-08-09T06:45:20.362Z,17.00
2022-08-09T06:47:58.032Z,17.00
2022-08-09T06:50:31.242Z,17.00
2022-08-09T06:53:01.424Z,17.10
2022-08-09T06:55:33.071Z,17.20
2022-08-09T06:58:04.431Z,17.20
2022-08-09T07:00:51.562Z,17.30
2022-08-09T07:03:26.976Z,17.30
2022-08-09T07:06:03.743Z,17.40
2022-08-09T07:08:35.275Z,17.40
2022-08-09T07:11:08.102Z,17.50
2022-08-09T07:13:45.112Z,17.50
2022-08-09T07:16:42.610Z,17.60
2022-08-09T07:19:15.758Z,17.60
2022-08-09T07:21:57.819Z,17.60
2022-08-09T07:24:31.825Z,17.70
2022-08-09T07:27:33.625Z,17.80
2022-08-09T07:30:00.228Z,17.90
2022-08-09T07:32:32.318Z,17.90
2022-08-09T07:35:08.256Z,17.90
2022-08-09T07:37:43.711Z,18.00
2022-08-09T07:40:17.499Z,18.10
2022-08-09T07:42:54.161Z,18.10
2022-08-09T07:45:38.148Z,18.10
2022-08-09T07:48:28.676Z,18.20
2022-08-09T07:51:03.249Z,18.20
2022-08-09T07:54:05.059Z,18.30
2022-08-09T07:56:35.979Z,18.40
2022-08-09T07:59:14.989Z,18.40
2022-08-09T08:01:55.730Z,18.40
2022-08-09T08:04:25.562Z,18.50
2022-08-09T08:07:27.195Z,18.50
2022-08-09T08:10:08.389Z,18.60
2022-08-09T08:12:43.311Z,18.60
2022-08-09T08:15:16.770Z,18.60
2022-08-09T08:17:53.234Z,18.60
2022-08-09T08:20:29.461Z,18.60
2022-08-09T08:23:01.590Z,18.70
2022-08-09T08:25:43.851Z,18.80
2022-08-09T08:28:14.242Z,18.80
2022-08-09T08:30:44.814Z,18.90
2022-08-09T08:33:23.623Z,18.90
2022-08-09T08:36:00.428Z,18.90
2022-08-09T08:38:31.758Z,18.90
2022-08-09T08:41:01.792Z,19.00
2022-08-09T08:43:36.214Z,19.10
2022-08-09T08:46:33.584Z,19.10
2022-08-09T08:48:58.169Z,19.20
2022-08-09T08:51:27.368Z,19.30
2022-08-09T08:54:11.744Z,19.40
2022-08-09T08:56:48.899Z,19.50
2022-08-09T08:59:19.251Z,19.50
2022-08-09T09:01:57.020Z,19.50
2022-08-09T09:04:31.955Z,19.60
2022-08-09T09:07:10.994Z,19.60
2022-08-09T09:09:59.523Z,19.60
2022-08-09T09:12:34.291Z,19.70
2022-08-09T09:15:06.396Z,19.80
2022-08-09T09:17:48.599Z,19.90
2022-08-09T09:20:21.294Z,19.90
2022-08-09T09:22:55.755Z,19.90
2022-08-09T09:26:03.127Z,19.90
2022-08-09T09:29:02.212Z,20.00
2022-08-09T09:31:17.617Z,20.10
2022-08-09T09:34:17.951Z,20.10
2022-08-09T09:36:54.441Z,20.20
2022-08-09T09:39:25.735Z,20.20
2022-08-09T09:42:25.707Z,20.30
2022-08-09T09:44:59.226Z,20.30
2022-08-09T09:47:28.799Z,20.30
2022-08-09T09:50:14.798Z,20.40
2022-08-09T09:52:53.397Z,20.40
2022-08-09T09:55:31.957Z,20.40
2022-08-09T09:58:18.650Z,20.50
2022-08-09T10:00:53.852Z,20.60
2022-08-09T10:03:43.892Z,20.70
2022-08-09T10:06:14.082Z,20.70
2022-08-09T10:08:54.989Z,20.80
2022-08-09T10:11:59.282Z,20.80
2022-08-09T10:14:30.745Z,20.90
2022-08-09T10:17:38.715Z,20.90
2022-08-09T10:19:59.346Z,20.90
2022-08-09T10:22:37.303Z,20.90
2022-08-09T10:25:12.494Z,20.90
2022-08-09T10:27:55.839Z,21.00
2022-08-09T10:34:08.940Z,21.00
2022-08-09T10:36:04.497Z,21.10
2022-08-09T10:38:56.015Z,21.10
2022-08-09T10:41:23.000Z,21.10
2022-08-09T10:44:00.105Z,21.10
2022-08-09T10:46:57.808Z,21.10
2022-08-09T10:49:49.796Z,21.10
2022-08-09T10:52:36.505Z,21.20
2022-08-09T10:55:25.401Z,21.30
2022-08-09T10:57:55.930Z,21.40
2022-08-09T11:00:41.799Z,21.40
2022-08-09T11:03:49.784Z,21.50
2022-08-09T11:06:23.472Z,21.60
2022-08-09T11:08:53.998Z,21.60
2022-08-09T11:11:24.235Z,21.60
2022-08-09T11:14:28.104Z,21.70
2022-08-09T11:16:56.909Z,21.80
2022-08-09T11:20:10.995Z,22.00
2022-08-09T11:23:09.988Z,22.00
2022-08-09T11:25:47.111Z,22.10
2022-08-09T11:28:55.828Z,22.20
2022-08-09T11:31:49.132Z,22.30
2022-08-09T11:34:28.379Z,22.40
2022-08-09T11:37:00.143Z,22.50
2022-08-09T11:39:33.736Z,22.50
2022-08-09T11:42:14.806Z,22.60
2022-08-09T11:44:49.155Z,22.70
2022-08-09T11:47:17.628Z,22.70
2022-08-09T11:50:55.502Z,22.70
2022-08-09T11:53:59.948Z,22.70
2022-08-09T11:56:42.760Z,22.90
2022-08-09T11:59:30.490Z,23.10
2022-08-09T12:02:16.930Z,23.10
2022-08-09T12:04:47.352Z,23.20
2022-08-09T12:07:16.409Z,23.30
2022-08-09T12:09:51.080Z,23.40
2022-08-09T12:12:28.558Z,23.50
2022-08-09T12:15:07.676Z,23.70
2022-08-09T12:17:44.409Z,23.80
2022-08-09T12:20:21.995Z,23.90
2022-08-09T12:22:53.103Z,24.00
2022-08-09T12:25:31.934Z,24.10
2022-08-09T12:29:14.547Z,24.10
2022-08-09T12:31:01.118Z,24.00
2022-08-09T12:33:51.002Z,24.10
2022-08-09T12:36:31.131Z,24.30
2022-08-09T12:39:01.450Z,24.40
2022-08-09T12:41:38.363Z,24.60
2022-08-09T12:44:10.388Z,24.70
2022-08-09T12:46:43.343Z,24.80
2022-08-09T12:49:21.356Z,25.00
2022-08-09T12:52:02.767Z,25.30
2022-08-09T12:54:47.653Z,25.30
2022-08-09T12:57:41.155Z,25.50
2022-08-09T13:00:17.034Z,25.60
2022-08-09T13:02:55.391Z,25.60
2022-08-09T13:05:26.544Z,25.50
2022-08-09T13:08:15.364Z,25.50
2022-08-09T13:10:52.304Z,25.70
2022-08-09T13:13:38.029Z,25.70
2022-08-09T13:16:20.564Z,25.80
2022-08-09T13:18:53.994Z,25.90
2022-08-09T13:22:37.984Z,26.10
2022-08-09T13:24:42.405Z,26.00
2022-08-09T13:27:04.729Z,26.00
2022-08-09T13:30:02.523Z,25.70
2022-08-09T13:32:28.902Z,25.70
2022-08-09T13:34:57.412Z,25.80
2022-08-09T13:37:51.388Z,26.00
2022-08-09T13:41:46.433Z,26.20
2022-08-09T13:43:05.302Z,26.50
2022-08-09T13:46:44.456Z,26.80
2022-08-09T13:48:26.189Z,27.00
2022-08-09T13:50:58.215Z,27.20
2022-08-09T13:53:41.323Z,27.20
2022-08-09T13:56:11.888Z,27.40
2022-08-09T13:58:40.276Z,27.60
2022-08-09T14:01:56.755Z,27.30
2022-08-09T14:04:02.659Z,27.10
2022-08-09T14:06:36.933Z,27.30
2022-08-09T14:09:09.463Z,27.60
2022-08-09T14:11:47.314Z,27.80
2022-08-09T14:14:26.790Z,28.00
2022-08-09T14:16:55.966Z,28.10
2022-08-09T14:19:24.574Z,28.10
2022-08-09T14:21:53.198Z,28.30
2022-08-09T14:24:32.104Z,28.20
2022-08-09T14:27:02.297Z,28.00
2022-08-09T14:30:34.749Z,28.40
2022-08-09T14:32:19.814Z,28.60
2022-08-09T14:34:56.913Z,28.70
2022-08-09T14:37:28.568Z,29.20
2022-08-09T14:40:12.037Z,29.50
2022-08-09T14:42:41.342Z,29.70
2022-08-09T14:46:39.731Z,29.80
2022-08-09T14:48:02.434Z,29.70
2022-08-09T14:50:34.709Z,29.90
2022-08-09T14:53:11.624Z,29.80
2022-08-09T14:55:42.016Z,29.80
2022-08-09T14:58:11.264Z,30.10
2022-08-09T15:00:40.064Z,30.30
2022-08-09T15:03:10.885Z,30.60
2022-08-09T15:05:39.874Z,30.40
2022-08-09T15:08:19.000Z,30.50
2022-08-09T15:11:00.935Z,29.70
2022-08-09T15:13:47.992Z,29.80
2022-08-09T15:16:22.019Z,30.20
2022-08-09T15:18:52.436Z,30.40
2022-08-09T15:21:55.797Z,30.50
2022-08-09T15:24:16.213Z,30.50
2022-08-09T15:26:53.214Z,30.20
2022-08-09T15:30:56.975Z,30.60
2022-08-09T15:32:28.616Z,30.80
2022-08-09T15:35:00.457Z,30.90
2022-08-09T15:37:57.233Z,30.80
2022-08-09T15:40:32.421Z,30.60
2022-08-09T15:43:03.214Z,30.30
2022-08-09T15:46:07.662Z,29.90
2022-08-09T15:48:28.833Z,30.20
2022-08-09T15:50:58.765Z,30.60
2022-08-09T15:54:08.168Z,30.80
2022-08-09T15:56:21.341Z,31.00
2022-08-09T15:58:59.165Z,30.60
2022-08-09T16:01:27.463Z,30.70
2022-08-09T16:03:59.773Z,30.70
2022-08-09T16:06:34.850Z,30.50
2022-08-09T16:09:06.122Z,30.70
2022-08-09T16:11:34.661Z,30.70
2022-08-09T16:14:08.109Z,30.70
2022-08-09T16:16:37.823Z,30.90
2022-08-09T16:19:07.674Z,30.70
2022-08-09T16:21:36.125Z,30.30
2022-08-09T16:24:04.840Z,30.20
2022-08-09T16:26:36.300Z,29.80
2022-08-09T16:29:11.666Z,29.30
2022-08-09T16:32:11.027Z,28.90
2022-08-09T16:34:55.352Z,29.20
2022-08-09T16:37:18.704Z,29.40
2022-08-09T16:40:02.567Z,29.40
2022-08-09T16:42:33.445Z,29.10
2022-08-09T16:45:03.025Z,29.10
2022-08-09T16:48:38.747Z,28.80
2022-08-09T16:50:29.989Z,28.50
2022-08-09T16:53:01.723Z,28.20
2022-08-09T16:56:00.542Z,28.40
2022-08-09T16:58:20.892Z,28.50
2022-08-09T17:00:51.345Z,28.50
2022-08-09T17:03:21.549Z,27.70
2022-08-09T17:06:09.409Z,27.30
2022-08-09T17:09:00.998Z,27.20
2022-08-09T17:11:40.093Z,27.10
2022-08-09T17:14:25.421Z,27.10
2022-08-09T17:16:59.999Z,27.00
2022-08-09T17:20:06.182Z,26.90
2022-08-09T17:22:25.075Z,26.90
2022-08-09T17:25:03.754Z,26.90
2022-08-09T17:27:33.651Z,26.70
2022-08-09T17:30:04.790Z,26.60
2022-08-09T17:32:38.635Z,26.50
2022-08-09T17:35:11.276Z,26.40
2022-08-09T17:38:02.291Z,26.40
2022-08-09T17:40:30.480Z,26.40
2022-08-09T17:43:32.341Z,26.30
2022-08-09T17:46:03.654Z,26.20
2022-08-09T17:48:38.845Z,25.90
2022-08-09T17:51:18.412Z,25.30
2022-08-09T17:53:52.208Z,25.10
2022-08-09T17:56:27.855Z,25.10
2022-08-09T17:58:59.612Z,25.10
2022-08-09T18:01:58.146Z,24.90
2022-08-09T18:04:19.618Z,24.70
2022-08-09T18:06:54.180Z,24.70
2022-08-09T18:09:25.046Z,24.70
2022-08-09T18:12:05.728Z,24.40
2022-08-09T18:14:49.750Z,24.30
2022-08-09T18:18:01.129Z,24.10
2022-08-09T18:20:56.772Z,24.10
2022-08-09T18:23:05.294Z,24.00
2022-08-09T18:25:50.382Z,23.90
2022-08-09T18:30:40.038Z,23.90
2022-08-09T18:31:10.936Z,23.80
2022-08-09T18:33:40.284Z,23.90
2022-08-09T18:36:14.441Z,23.90
2022-08-09T18:38:57.350Z,23.90
2022-08-09T18:41:29.508Z,23.80
2022-08-09T18:44:03.032Z,23.80
2022-08-09T18:46:49.768Z,23.80
2022-08-09T18:49:20.387Z,23.70
2022-08-09T18:51:55.379Z,23.60
2022-08-09T18:54:29.620Z,23.50
2022-08-09T18:57:06.364Z,23.40
2022-08-09T18:59:43.890Z,23.40
2022-08-09T19:02:19.203Z,23.30
2022-08-09T19:05:03.325Z,23.30
2022-08-09T19:07:34.242Z,23.10
2022-08-09T19:10:14.021Z,23.00
2022-08-09T19:12:45.526Z,22.90
2022-08-09T19:15:22.183Z,22.90
2022-08-09T19:17:56.497Z,22.80
2022-08-09T19:20:26.765Z,22.70
2022-08-09T19:23:06.548Z,22.60
2022-08-09T19:26:01.462Z,22.60
2022-08-09T19:28:23.186Z,22.50
2022-08-09T19:30:57.316Z,22.50
2022-08-09T19:33:25.877Z,22.40
2022-08-09T19:35:57.370Z,22.40
2022-08-09T19:38:28.742Z,22.30
2022-08-09T19:40:59.928Z,22.20
2022-08-09T19:44:01.105Z,22.10
2022-08-09T19:46:17.442Z,22.10
2022-08-09T19:50:06.678Z,21.90
2022-08-09T19:51:55.760Z,21.80
2022-08-09T19:54:26.492Z,21.60
2022-08-09T19:56:54.707Z,21.60
2022-08-09T19:59:57.862Z,21.60
2022-08-09T20:04:06.880Z,21.50
2022-08-09T20:05:01.612Z,21.40
2022-08-09T20:07:56.828Z,21.40
2022-08-09T20:10:22.469Z,21.40
2022-08-09T20:13:04.756Z,21.30
2022-08-09T20:16:34.296Z,21.10
2022-08-09T20:18:22.799Z,21.00
2022-08-09T20:20:56.694Z,21.00
2022-08-09T20:23:38.592Z,20.90
2022-08-09T20:26:12.967Z,20.80
2022-08-09T20:28:48.594Z,20.70
2022-08-09T20:31:18.357Z,20.70
2022-08-09T20:33:46.988Z,20.60
2022-08-09T20:36:27.173Z,20.60
2022-08-09T20:39:28.486Z,20.60
2022-08-09T20:41:48.915Z,20.70
2022-08-09T20:44:26.827Z,20.60
2022-08-09T20:46:57.946Z,20.60
2022-08-09T20:49:27.452Z,20.50
2022-08-09T20:51:56.812Z,20.50
2022-08-09T20:54:25.605Z,20.40
2022-08-09T20:56:58.595Z,20.40
2022-08-09T21:00:19.336Z,20.40
2022-08-09T21:02:18.433Z,20.40
2022-08-09T21:05:53.878Z,20.30
2022-08-09T21:07:40.701Z,20.30
2022-08-09T21:10:12.929Z,20.20
2022-08-09T21:15:34.038Z,20.20
2022-08-09T21:18:21.965Z,20.20
2022-08-09T21:20:54.417Z,20.20
2022-08-09T21:23:26.484Z,20.10
2022-08-09T21:26:11.600Z,20.00
2022-08-09T21:28:55.818Z,20.10
2022-08-09T21:31:24.555Z,20.00
2022-08-09T21:34:13.126Z,20.00
2022-08-09T21:36:45.876Z,20.00
2022-08-09T21:39:27.757Z,20.00
2022-08-09T21:42:05.883Z,20.00
2022-08-09T21:44:42.648Z,20.00
2022-08-09T21:47:17.543Z,20.00
2022-08-09T21:49:48.101Z,20.00
2022-08-09T21:52:20.958Z,19.90
2022-08-09T21:55:03.448Z,20.00
2022-08-09T21:57:38.687Z,20.00
2022-08-09T22:00:26.709Z,19.90
2022-08-09T22:03:02.157Z,19.90
2022-08-09T22:05:35.894Z,19.90
2022-08-09T22:08:11.909Z,19.80
2022-08-09T22:11:00.225Z,19.80
2022-08-09T22:13:34.753Z,19.80
2022-08-09T22:16:07.270Z,19.70
2022-08-09T22:18:35.839Z,19.70
2022-08-09T22:21:09.931Z,19.70
2022-08-09T22:23:58.976Z,19.60
2022-08-09T22:26:34.324Z,19.60
2022-08-09T22:29:07.172Z,19.60
2022-08-09T22:31:37.876Z,19.50
2022-08-09T22:34:09.884Z,19.50
2022-08-09T22:36:46.413Z,19.50
2022-08-09T22:39:46.774Z,19.40
2022-08-09T22:42:03.968Z,19.40
2022-08-09T22:44:34.654Z,19.40
2022-08-09T22:48:16.013Z,19.40
2022-08-09T22:49:52.622Z,19.40
2022-08-09T22:52:22.181Z,19.40
2022-08-09T22:54:52.761Z,19.40
2022-08-09T22:57:21.683Z,19.40
2022-08-09T22:59:57.189Z,19.30
2022-08-09T23:02:28.565Z,19.30
2022-08-09T23:04:57.005Z,19.30
2022-08-09T23:08:21.944Z,19.20
2022-08-09T23:10:32.825Z,19.20
2022-08-09T23:13:01.562Z,19.20
2022-08-09T23:15:30.966Z,19.20
2022-08-09T23:18:00.530Z,19.20
2022-08-09T23:20:28.846Z,19.10
2022-08-09T23:22:57.099Z,19.10
2022-08-09T23:25:25.332Z,19.10
2022-08-09T23:27:57.273Z,19.10
2022-08-09T23:30:50.880Z,19.10
2022-08-09T23:33:21.242Z,19.00
2022-08-09T23:36:05.148Z,19.00
2022-08-09T23:38:35.940Z,18.90
2022-08-09T23:41:28.069Z,18.90
2022-08-09T23:43:58.074Z,18.90
2022-08-09T23:46:26.440Z,18.90
2022-08-09T23:48:55.917Z,18.80
2022-08-09T23:51:24.064Z,18.80
2022-08-09T23:53:55.500Z,18.80
2022-08-09T23:56:53.646Z,18.80
2022-08-09T23:59:20.630Z,18.80
